createdAt,value
2022-09-12T00:01:52.878Z,13.09
2022-09-12T00:05:07.438Z,13.12
2022-09-12T00:08:19.567Z,13.04
2022-09-12T00:11:32.123Z,12.98
2022-09-12T00:14:45.883Z,12.91
2022-09-12T00:17:57.273Z,12.84
2022-09-12T00:21:12.137Z,12.80
2022-09-12T00:24:23.851Z,12.78
2022-09-12T00:27:35.821Z,12.72
2022-09-12T00:30:51.995Z,12.69
2022-09-12T00:34:05.757Z,12.70
2022-09-12T00:37:17.602Z,12.71
2022-09-12T00:40:30.641Z,12.73
2022-09-12T00:43:48.251Z,12.76
2022-09-12T00:47:03.549Z,12.77
2022-09-12T00:50:18.900Z,12.76
2022-09-12T00:53:31.341Z,12.76
2022-09-12T00:56:45.925Z,12.74
2022-09-12T01:00:02.166Z,12.69
2022-09-12T01:03:18.725Z,12.68
2022-09-12T01:06:35.298Z,12.66
2022-09-12T01:13:50.062Z,12.65
2022-09-12T01:17:01.612Z,12.64
2022-09-12T01:20:55.621Z,12.59
2022-09-12T01:24:41.417Z,12.58
2022-09-12T01:28:20.767Z,12.54
2022-09-12T01:31:38.412Z,12.48
2022-09-12T01:34:56.202Z,12.49
2022-09-12T01:42:23.183Z,12.54
2022-09-12T01:45:40.039Z,12.54
2022-09-12T01:48:55.783Z,12.55
2022-09-12T01:52:15.505Z,12.55
2022-09-12T01:55:31.252Z,12.53
2022-09-12T01:58:48.327Z,12.52
2022-09-12T02:02:06.398Z,12.54
2022-09-12T02:05:23.162Z,12.47
2022-09-12T02:08:39.547Z,12.47
2022-09-12T02:11:52.775Z,12.48
2022-09-12T02:15:09.506Z,12.50
2022-09-12T02:18:23.243Z,12.52
2022-09-12T02:21:35.948Z,12.50
2022-09-12T02:24:53.512Z,12.55
2022-09-12T02:28:11.099Z,12.51
2022-09-12T02:31:29.973Z,12.46
2022-09-12T02:34:49.809Z,12.43
2022-09-12T02:38:08.673Z,12.37
2022-09-12T02:41:24.137Z,12.32
2022-09-12T02:44:37.855Z,12.28
2022-09-12T02:47:53.403Z,12.23
2022-09-12T02:51:05.766Z,12.19
2022-09-12T02:54:19.517Z,12.15
2022-09-12T02:57:31.430Z,12.11
2022-09-12T03:00:51.403Z,12.12
2022-09-12T03:04:27.054Z,12.06
2022-09-12T03:07:52.078Z,12.05
2022-09-12T03:12:00.922Z,12.02
2022-09-12T03:23:01.312Z,11.88
2022-09-12T03:26:17.112Z,11.87
2022-09-12T03:33:47.994Z,11.82
2022-09-12T03:37:02.292Z,11.81
2022-09-12T03:40:18.435Z,11.79
2022-09-12T05:51:22.841Z,13.71
2022-09-12T07:32:33.147Z,15.88
2022-09-12T07:35:45.119Z,15.67
2022-09-12T07:39:01.566Z,16.64
2022-09-12T07:42:15.299Z,16.74
2022-09-12T07:45:26.884Z,16.12
2022-09-12T07:48:38.459Z,16.84
2022-09-12T07:51:50.109Z,16.55
2022-09-12T07:55:01.814Z,17.58
2022-09-12T07:58:13.485Z,18.82
2022-09-12T08:01:27.338Z,18.63
2022-09-12T08:04:39.465Z,19.24
2022-09-12T08:07:53.638Z,19.06
2022-09-12T08:11:07.928Z,17.88
2022-09-12T08:14:19.527Z,18.61
2022-09-12T08:17:31.263Z,19.03
2022-09-12T08:20:43.326Z,19.00
2022-09-12T08:23:58.148Z,19.87
2022-09-12T08:27:10.771Z,19.05
2022-09-12T08:30:22.761Z,19.55
2022-09-12T08:33:36.386Z,20.59
2022-09-12T08:36:48.324Z,20.45
2022-09-12T08:39:59.831Z,21.51
2022-09-12T08:43:17.276Z,21.16
2022-09-12T08:46:33.946Z,20.72
2022-09-12T08:49:51.930Z,20.73
2022-09-12T08:53:08.930Z,18.91
2022-09-12T08:56:20.774Z,18.58
2022-09-12T08:59:32.682Z,18.32
2022-09-12T09:03:08.342Z,18.30
2022-09-12T09:06:32.081Z,20.14
2022-09-12T09:09:56.141Z,20.77
2022-09-12T09:13:13.007Z,21.71
2022-09-12T09:16:31.435Z,21.92
2022-09-12T09:19:50.807Z,22.49
2022-09-12T09:23:07.588Z,22.25
2022-09-12T09:26:26.451Z,21.39
2022-09-12T09:29:44.196Z,21.17
2022-09-12T09:32:58.877Z,22.07
2022-09-12T09:36:20.234Z,23.00
2022-09-12T09:39:52.779Z,23.01
2022-09-12T09:43:10.960Z,23.05
2022-09-12T09:46:22.741Z,23.55
2022-09-12T09:49:38.190Z,23.23
2022-09-12T09:52:50.879Z,23.35
2022-09-12T09:56:06.695Z,21.67
2022-09-12T09:59:22.442Z,21.06
2022-09-12T10:02:34.341Z,22.35
2022-09-12T10:05:54.279Z,22.74
2022-09-12T10:09:28.312Z,23.38
2022-09-12T10:12:40.134Z,23.77
2022-09-12T10:16:04.909Z,22.55
2022-09-12T10:19:26.655Z,22.90
2022-09-12T10:22:38.696Z,23.25
2022-09-12T10:25:55.701Z,21.90
2022-09-12T10:29:18.936Z,21.80
2022-09-12T10:32:37.821Z,22.20
2022-09-12T10:35:56.225Z,22.84
2022-09-12T10:39:09.791Z,22.91
2022-09-12T10:42:23.517Z,23.13
2022-09-12T10:45:39.530Z,21.27
2022-09-12T10:48:53.684Z,22.04
2022-09-12T10:52:24.776Z,21.41
2022-09-12T10:55:42.656Z,21.79
2022-09-12T11:00:07.310Z,21.54
2022-09-12T11:24:35.929Z,22.84
2022-09-12T16:04:32.454Z,18.38
2022-09-12T16:07:44.138Z,18.26
2022-09-12T16:11:00.122Z,18.13
2022-09-12T16:14:12.329Z,18.04
2022-09-12T16:17:23.993Z,18.03
2022-09-12T16:20:35.813Z,17.93
2022-09-12T16:23:50.042Z,17.78
2022-09-12T16:27:01.865Z,17.59
2022-09-12T16:30:16.543Z,17.50
2022-09-12T16:33:28.769Z,17.42
2022-09-12T16:36:40.715Z,17.32
2022-09-12T16:39:52.519Z,17.18
2022-09-12T16:43:04.539Z,17.08
2022-09-12T16:46:19.679Z,17.12
2022-09-12T16:49:33.925Z,17.04
2022-09-12T16:52:45.876Z,16.93
2022-09-12T16:55:57.726Z,16.94
2022-09-12T16:59:09.850Z,16.97
2022-09-12T17:02:21.627Z,16.86
2022-09-12T17:05:33.844Z,16.84
2022-09-12T17:08:48.181Z,16.83
2022-09-12T17:12:00.734Z,16.76
2022-09-12T17:15:14.111Z,16.74
2022-09-12T17:18:25.974Z,16.44
2022-09-12T17:21:38.078Z,16.37
2022-09-12T17:24:49.967Z,16.39
2022-09-12T17:28:02.032Z,16.44
2022-09-12T17:31:17.361Z,16.36
2022-09-12T17:34:30.020Z,16.28
2022-09-12T17:37:43.232Z,16.18
2022-09-12T17:40:59.706Z,16.20
2022-09-12T17:44:10.558Z,16.21
2022-09-12T17:47:22.431Z,15.93
2022-09-12T17:50:37.652Z,15.66
2022-09-12T17:53:49.092Z,15.46
2022-09-12T17:57:01.268Z,15.60
2022-09-12T18:00:16.454Z,15.64
2022-09-12T18:03:31.347Z,15.61
2022-09-12T18:06:46.098Z,15.52
2022-09-12T18:09:58.525Z,15.51
2022-09-12T18:13:11.078Z,15.40
2022-09-12T18:16:22.919Z,15.34
2022-09-12T18:19:35.862Z,15.33
2022-09-12T18:22:48.391Z,15.34
2022-09-12T18:26:08.432Z,15.33
2022-09-12T18:29:21.636Z,15.32
2022-09-12T18:32:33.861Z,15.34
2022-09-12T18:35:46.661Z,15.39
2022-09-12T18:38:59.058Z,15.43
2022-09-12T18:42:11.485Z,15.42
2022-09-12T18:45:23.554Z,15.41
2022-09-12T18:48:35.983Z,15.37
2022-09-12T18:51:48.011Z,15.33
2022-09-12T18:54:59.674Z,15.26
2022-09-12T18:58:12.818Z,15.20
2022-09-12T19:01:28.252Z,15.14
2022-09-12T19:04:40.172Z,15.12
2022-09-12T19:07:51.933Z,15.10
2022-09-12T19:11:04.254Z,15.05
2022-09-12T19:14:16.391Z,15.01
2022-09-12T19:17:28.286Z,14.98
2022-09-12T19:20:42.756Z,14.94
2022-09-12T19:23:55.028Z,14.92
2022-09-12T19:27:08.043Z,14.84
2022-09-12T19:30:20.909Z,14.85
2022-09-12T19:33:33.438Z,14.82
2022-09-12T19:36:47.257Z,14.75
2022-09-12T19:39:59.434Z,14.72
2022-09-12T19:43:11.862Z,14.68
2022-09-12T19:46:26.644Z,14.62
2022-09-12T19:49:38.450Z,14.56
2022-09-12T19:52:50.608Z,14.53
2022-09-12T19:56:06.935Z,14.47
2022-09-12T19:59:19.241Z,14.47
2022-09-12T20:02:31.061Z,14.43
2022-09-12T20:05:43.106Z,14.40
2022-09-12T20:08:54.850Z,14.33
2022-09-12T20:12:06.921Z,14.22
2022-09-12T20:15:19.630Z,14.19
2022-09-12T20:18:31.359Z,14.12
2022-09-12T20:21:43.809Z,14.11
2022-09-12T20:24:55.930Z,14.12
2022-09-12T20:28:08.022Z,14.08
2022-09-12T20:31:22.128Z,14.04
2022-09-12T20:34:34.068Z,14.00
2022-09-12T20:37:45.871Z,13.92
2022-09-12T20:40:57.887Z,13.88
2022-09-12T20:44:10.041Z,13.90
2022-09-12T20:47:21.664Z,13.91
2022-09-12T20:50:33.294Z,13.91
2022-09-12T20:53:44.857Z,13.90
2022-09-12T20:56:56.411Z,13.89
2022-09-12T21:00:09.475Z,13.89
2022-09-12T21:03:21.859Z,13.88
2022-09-12T21:06:33.655Z,13.82
2022-09-12T21:09:45.420Z,13.77
2022-09-12T21:12:58.173Z,13.77
2022-09-12T21:16:13.058Z,13.60
2022-09-12T21:19:24.910Z,13.53
2022-09-12T21:22:37.338Z,13.47
2022-09-12T21:25:52.453Z,13.45
2022-09-12T21:29:03.186Z,13.44
2022-09-12T21:32:15.201Z,13.36
2022-09-12T21:35:26.772Z,13.31
2022-09-12T21:38:39.842Z,13.32
2022-09-12T21:41:51.660Z,13.28
2022-09-12T21:45:03.348Z,13.23
2022-09-12T21:48:15.259Z,13.23
2022-09-12T21:51:27.179Z,13.23
2022-09-12T21:54:39.198Z,13.18
2022-09-12T21:57:51.181Z,13.10
2022-09-12T22:01:04.820Z,13.04
2022-09-12T22:04:19.057Z,13.00
2022-09-12T22:07:31.785Z,13.03
2022-09-12T22:10:43.877Z,13.01
2022-09-12T22:13:55.747Z,13.02
2022-09-12T22:17:08.158Z,12.97
2022-09-12T22:20:20.043Z,12.91
2022-09-12T22:23:46.279Z,12.83
2022-09-12T22:26:59.152Z,12.75
2022-09-12T22:30:13.473Z,12.68
2022-09-12T22:33:25.119Z,12.62
2022-09-12T22:36:38.922Z,12.52
2022-09-12T22:39:50.983Z,12.33
2022-09-12T22:43:02.869Z,12.36
2022-09-12T22:46:16.339Z,12.45
2022-09-12T22:49:28.413Z,12.50
2022-09-12T22:52:40.391Z,12.53
2022-09-12T22:55:52.496Z,12.52
2022-09-12T23:06:37.164Z,12.59
2022-09-12T23:09:50.155Z,12.60
2022-09-12T23:13:01.884Z,12.59
2022-09-12T23:16:18.688Z,12.58
2022-09-12T23:19:30.452Z,12.57
2022-09-12T23:22:43.013Z,12.55
2022-09-12T23:25:56.603Z,12.55
2022-09-12T23:29:09.637Z,12.55
2022-09-12T23:32:21.282Z,12.54
2022-09-12T23:35:32.880Z,12.53
2022-09-12T23:38:45.339Z,12.52
2022-09-12T23:41:59.673Z,12.51
2022-09-12T23:45:12.825Z,12.46
2022-09-12T23:48:24.629Z,12.47
2022-09-12T23:51:36.385Z,12.45
2022-09-12T23:54:48.095Z,12.45
2022-09-12T23:58:00.870Z,12.43
